Flight Number: EUR1208 Duration: 2:15
Departure: Riga Int'l Airport (EVRA) at 18:15 Distance: 733 Nm
Arrival: Ljubljana Airport (LJLJ) at 20:30 Equipment: A321

Weather Information
Riga International Airport, Latvia (EVRA) 56-55N 023-58E May 23, 2018 - 08:20 PM EDT / 2018.05.24 0020 UTC
Wind: from the NNW (340 degrees) at 5 MPH (4 KT):0
Visibility: greater than 7 mile(s):0 Temperature: 55 F (13 C) Dew Point: 51 F (11 C) Relative Humidity: 87% Pressure (altimeter): 30.27 in. Hg (1025 hPa)
ob: EVRA 240020Z 34004KT CAVOK 13/11 Q1025 NOSIG cycle: 0
Sunrise: 01:54 Sunset: 18:47 (UTC)

Ljubljana / Brnik, Slovenia (LJLJ) 46-13N 014-29E 362M May 23, 2018 - 08:30 PM EDT / 2018.05.24 0030 UTC
Wind: from the W (280 degrees) at 5 MPH (4 KT):0
Visibility: greater than 7 mile(s):0
Sky conditions: mostly cloudy Temperature: 57 F (14 C) Dew Point: 57 F (14 C) Relative Humidity: 100% Pressure (altimeter): 30.06 in. Hg (1018 hPa)
ob: LJLJ 240030Z 28004KT 9999 FEW035 SCT090 BKN200 14/14 Q1018 NOSIG cycle: 0
Sunrise: 03:23 Sunset: 18:34 (UTC)

TAF:2018/05/23 21:06 TAF LJLJ 232000Z 2321/2421 30003KT 9999 FEW040 BKN120 TEMPO 2323/2421 SHRA SCT030TCU BKN040 BECMG 2408/2410 11005KT PROB40 TEMPO 2411/2418 VRB15KT 5000 TSRA SCT040CB BKN050

Previous Pireps for this route
Date Aircraft Flight time Fuel used Landing rate On time
2013-01-26A32102.1012832-381No
2013-03-13A3212.1814340-195No
2013-03-21A32102.1513884-249Yes
2013-08-17A32102.3115619-184No
2013-10-21A32102.1113288-150Yes
2014-07-01B73702.1912161-215Yes
2014-10-15A32102.0612297-231Yes
(pireps marked green are flown by you)

Route map